Carnival Conquest — 3FPQ9 — position and weather

sailwx.info

Track history (hours):
 
Tides and Currents Weather Stations Pressure Air Temp Water Temp Dewpoint Dewpoint Depression Visibility Wind Speed Wind Dir Waves Ship Positions

Carnival Conquest

Operator: Carnival Cruise Lines

Last reported at 2018-Feb-21 16:54 UTC. Time now 2018-Feb-21 17:40 UTC.
Position N 17°17' W 062°43'.

Type: Ship. MMSI: 357657000.

Date/timePositionNaut miles runAvg speedWind from/ knotsBaromVisibWave heightAir tempDewpointWater temp
2018-Feb-21 16:54N 17°17' W 062°43'0 0.0
2018-Feb-21 15:36N 17°17' W 062°43'0 0.0
2018-Feb-21 15:12N 17°17' W 062°43'0 0.0
2018-Feb-21 15:00N 17°17' W 062°43'0 0.0
2018-Feb-21 14:24N 17°17' W 062°43'0 0.0
2018-Feb-21 13:42N 17°17' W 062°43'0 0.0
2018-Feb-21 13:24N 17°17' W 062°43'0 0.0
2018-Feb-21 12:48N 17°17' W 062°43'0 0.1
2018-Feb-21 10:56N 17°17' W 062°43'3 7.6
2018-Feb-21 10:29N 17°14' W 062°45'12 9.8
2018-Feb-21 09:13N 17°03' W 062°51'22 5.2
2018-Feb-21 05:00N 16°54' W 063°12'2416.1 070 / 15 24.020.0
2018-Feb-21 03:32N 17°17' W 063°06'110.0
2018-Feb-21 03:28N 17°17' W 063°06'1 1.2
2018-Feb-21 03:00N 17°18' W 063°06'5138.2 050 / 271020.0 25.019.027.0
2018-Feb-21 02:57N 17°23' W 063°06'510.6
2018-Feb-21 02:28N 17°28' W 063°06'710.7
2018-Feb-21 01:47N 17°35' W 063°06'310.1
2018-Feb-21 01:30N 17°38' W 063°06'610.4
2018-Feb-21 00:58N 17°44' W 063°06'510.5
2018-Feb-21 00:30N 17°49' W 063°06'610.6
2018-Feb-20 23:56N 17°55' W 063°06'510.8
2018-Feb-20 23:28N 17°60' W 063°06'3 5.7
2018-Feb-20 22:55N 18°01' W 063°03'0 0.0
2018-Feb-20 22:22N 18°01' W 063°03'0 0.0
2018-Feb-20 21:52N 18°01' W 063°03'0 0.0
2018-Feb-20 21:25N 18°01' W 063°03'0 0.0
2018-Feb-20 20:55N 18°01' W 063°03'0 0.0
2018-Feb-20 20:25N 18°01' W 063°03'0 0.0
2018-Feb-20 19:55N 18°01' W 063°03'0 0.0
2018-Feb-20 19:22N 18°01' W 063°03'0 0.0
2018-Feb-20 18:52N 18°01' W 063°03'0 0.0
2018-Feb-20 18:28N 18°01' W 063°03'0 0.0
2018-Feb-20 17:55N 18°01' W 063°03'0 0.0
2018-Feb-20 17:28N 18°01' W 063°03'0 0.0
2018-Feb-20 16:55N 18°01' W 063°03'0 0.0
2018-Feb-20 16:13N 18°01' W 063°03'0 0.0
2018-Feb-20 15:55N 18°01' W 063°03'0 0.0
2018-Feb-20 15:16N 18°01' W 063°03'0 0.0
2018-Feb-20 14:58N 18°01' W 063°03'0 0.0
2018-Feb-20 14:28N 18°01' W 063°03'0 0.0
2018-Feb-20 13:58N 18°01' W 063°03'0 0.9
2018-Feb-20 13:26N 18°00' W 063°03'4 9.2
2018-Feb-20 12:59N 18°00' W 063°07'1111.6
2018-Feb-20 12:00N 18°06' W 063°18'741.8 050 / 301019.0 23.020.027.9
2018-Feb-20 11:50N 18°07' W 063°25'617.2
2018-Feb-20 11:30N 18°12' W 063°29'917.0
2018-Feb-20 10:59N 18°19' W 063°35'8714.6
2018-Feb-20 05:00N 19°18' W 064°42'2914.5 090 / 34 24.020.022.0
2018-Feb-20 03:00N 19°36' W 065°06'16117.9 080 / 311022.0 24.620.027.0
2018-Feb-19 18:00N 20°54' W 067°36'9716.1 090 / 33 25.021.0
2018-Feb-19 12:00N 21°42' W 069°06'9616.0 080 / 291022.0 24.021.026.0
2018-Feb-19 06:00N 22°30' W 070°36'4113.7 070 / 36 24.020.0
2018-Feb-19 03:00N 22°54' W 071°12'15016.7 090 / 261023.0 24.020.026.0
2018-Feb-18 18:00N 24°06' W 073°36'21317.8 120 / 22 24.020.0
2018-Feb-18 06:00N 25°42' W 077°06'11919.7 090 / 10 25.019.0
2018-Feb-17 23:57N 26°15' W 079°13'919.2
2018-Feb-17 23:30N 26°13' W 079°22'1019.3
2018-Feb-17 23:00N 26°11' W 079°33'1019.5
2018-Feb-17 22:31N 26°10' W 079°44'1019.2
2018-Feb-17 22:01N 26°08' W 079°54'917.1
2018-Feb-17 21:30N 26°06' W 080°03'3 6.9
2018-Feb-17 21:00N 26°06' W 080°07'0 0.3
2018-Feb-17 20:28N 26°06' W 080°07'0 0.0
2018-Feb-17 19:58N 26°06' W 080°07'0 0.0
2018-Feb-17 19:28N 26°06' W 080°07'0 0.0
2018-Feb-17 18:58N 26°06' W 080°07'0 0.0
2018-Feb-17 18:28N 26°06' W 080°07'0 0.0
2018-Feb-17 17:58N 26°06' W 080°07'0 0.0
2018-Feb-17 17:28N 26°06' W 080°07'0 0.0
2018-Feb-17 16:58N 26°06' W 080°07'0 0.0
2018-Feb-17 16:28N 26°06' W 080°07'0 0.0
2018-Feb-17 15:58N 26°06' W 080°07'0 0.0
2018-Feb-17 15:28N 26°06' W 080°07'0 0.0
2018-Feb-17 14:58N 26°06' W 080°07'0 0.0
2018-Feb-17 14:28N 26°06' W 080°07'0 0.0
2018-Feb-17 13:58N 26°06' W 080°07'0 0.0
2018-Feb-17 13:28N 26°06' W 080°07'0 0.0
2018-Feb-17 12:55N 26°06' W 080°07'0 0.0
2018-Feb-17 12:28N 26°06' W 080°07'0 0.0
2018-Feb-17 11:58N 26°06' W 080°07'0 0.0
2018-Feb-17 11:25N 26°06' W 080°07'0 0.7
2018-Feb-17 11:01N 26°06' W 080°07'5 9.4
2018-Feb-17 10:31N 26°06' W 080°02'4 8.6
2018-Feb-17 10:00N 26°03' W 079°58'5 9.9
2018-Feb-17 09:31N 25°60' W 079°54'612.7
2018-Feb-17 09:00N 25°56' W 079°48'612.7
2018-Feb-17 08:30N 25°52' W 079°43'510.7
2018-Feb-17 08:00N 25°47' W 079°41'612.0
2018-Feb-17 07:30N 25°41' W 079°40'612.9
2018-Feb-17 07:00N 25°35' W 079°39'4 8.2
2018-Feb-17 06:30N 25°34' W 079°35'5 9.4
2018-Feb-17 06:00N 25°36' W 079°30'5709.4 080 / 18 25.021.022.0
2018-Feb-17 05:59N 25°38' W 079°35'4 7.4
2018-Feb-17 05:30N 25°41' W 079°35'4 7.2
2018-Feb-17 05:00N 25°45' W 079°35'4 7.2
2018-Feb-17 04:30N 25°49' W 079°35'4 7.4
2018-Feb-17 04:00N 25°52' W 079°35'4 7.4
2018-Feb-17 03:30N 25°56' W 079°35'4 7.4
2018-Feb-17 03:00N 25°60' W 079°35'7465.3
2018-Feb-17 03:00N 25°54' W 079°30'918.4 170 / 131022.0 24.018.026.7
2018-Feb-17 02:30N 26°03' W 079°33'4 7.1
2018-Feb-17 02:00N 26°06' W 079°31'4 7.3
2018-Feb-17 01:30N 26°09' W 079°29'4 7.3
2018-Feb-17 01:00N 26°13' W 079°28'4 7.3
2018-Feb-17 00:30N 26°16' W 079°27'4 7.5
2018-Feb-17 00:00N 26°20' W 079°25'4 7.5
2018-Feb-16 23:30N 26°23' W 079°25'4 7.5
2018-Feb-16 22:59N 26°27' W 079°25'4 7.4
2018-Feb-16 22:30N 26°31' W 079°25'4 7.3
2018-Feb-16 22:00N 26°34' W 079°25'4 7.9
2018-Feb-16 21:30N 26°38' W 079°24'611.3
2018-Feb-16 21:00N 26°37' W 079°18'2711.6
2018-Feb-16 18:39N 26°26' W 078°49'211.5
2018-Feb-16 18:30N 26°28' W 078°48'90 7.2
2018-Feb-16 06:00N 25°48' W 077°18'5016.7 070 / 18 25.021.022.0
2018-Feb-16 03:00N 25°36' W 076°24'114 5.4 040 / 121024.0 23.019.027.0
2018-Feb-15 06:00N 24°30' W 074°42'3712.5 040 / 18 25.022.0
2018-Feb-15 03:00N 24°12' W 074°06'14616.2 060 / 211026.0 24.021.026.8
2018-Feb-14 18:00N 22°30' W 072°12'125 9.6 060 / 22 25.019.021.0
2018-Feb-14 05:00N 20°36' W 071°18'16 8.2 060 / 18 25.019.0
2018-Feb-14 03:00N 20°24' W 071°06'118 5.6 100 / 311024.0 25.022.027.0
2018-Feb-13 06:00N 20°30' W 073°12'3611.9 080 / 45 26.020.025.0
2018-Feb-13 03:00N 20°42' W 073°48'16818.6 080 / 331022.0 25.022.028.0
2018-Feb-12 18:00N 21°42' W 076°36'9115.2 090 / 30 25.021.0
2018-Feb-12 12:00N 22°30' W 078°00'10217.1 090 / 291021.0 25.022.026.8
2018-Feb-12 06:00N 23°48' W 079°12'3812.5 080 / 25 25.022.025.0
2018-Feb-12 03:00N 24°24' W 079°24'6124.8 090 / 261021.0 25.022.026.0
2018-Feb-12 00:31N 25°24' W 079°39'417.0
2018-Feb-12 00:18N 25°28' W 079°39'516.8
2018-Feb-12 00:00N 25°32' W 079°41'816.6
2018-Feb-11 23:30N 25°40' W 079°44'816.7
2018-Feb-11 23:01N 25°47' W 079°49'816.2
2018-Feb-11 22:30N 25°54' W 079°54'815.9
2018-Feb-11 22:01N 26°00' W 079°59'713.3
2018-Feb-11 21:30N 26°06' W 080°04'3 6.4
2018-Feb-11 20:59N 26°06' W 080°07'0 0.0
2018-Feb-11 20:29N 26°06' W 080°07'0 0.0
2018-Feb-11 19:59N 26°06' W 080°07'0 0.0
2018-Feb-11 19:30N 26°06' W 080°07'0 0.0
2018-Feb-11 18:56N 26°06' W 080°07'0 0.0
2018-Feb-11 18:29N 26°06' W 080°07'0 0.0
2018-Feb-11 18:00N 26°06' W 080°07'0 0.0
2018-Feb-11 17:30N 26°06' W 080°07'0 0.0
2018-Feb-11 16:59N 26°06' W 080°07'  
Track history (hours):
 
Tides and Currents Weather Stations Pressure Air Temp Water Temp Dewpoint Dewpoint Depression Visibility Wind Speed Wind Dir Waves Ship Positions

Carnival Conquest

Operator: Carnival Cruise Lines

Last reported at 2018-Feb-21 16:54 UTC. Time now 2018-Feb-21 17:40 UTC.
Position N 17°17' W 062°43'.

Type: Ship. MMSI: 357657000.

Date/timePositionNaut miles runAvg speedWind from/ knotsBaromVisibWave heightAir tempDewpointWater temp
2018-Feb-21 16:54N 17°17' W 062°43'0 0.0
2018-Feb-21 15:36N 17°17' W 062°43'0 0.0
2018-Feb-21 15:12N 17°17' W 062°43'0 0.0
2018-Feb-21 15:00N 17°17' W 062°43'0 0.0
2018-Feb-21 14:24N 17°17' W 062°43'0 0.0
2018-Feb-21 13:42N 17°17' W 062°43'0 0.0
2018-Feb-21 13:24N 17°17' W 062°43'0 0.0
2018-Feb-21 12:48N 17°17' W 062°43'0 0.1
2018-Feb-21 10:56N 17°17' W 062°43'3 7.6
2018-Feb-21 10:29N 17°14' W 062°45'12 9.8
2018-Feb-21 09:13N 17°03' W 062°51'22 5.2
2018-Feb-21 05:00N 16°54' W 063°12'2416.1 070 / 15 24.020.0
2018-Feb-21 03:32N 17°17' W 063°06'110.0
2018-Feb-21 03:28N 17°17' W 063°06'1 1.2
2018-Feb-21 03:00N 17°18' W 063°06'5138.2 050 / 271020.0 25.019.027.0
2018-Feb-21 02:57N 17°23' W 063°06'510.6
2018-Feb-21 02:28N 17°28' W 063°06'710.7
2018-Feb-21 01:47N 17°35' W 063°06'310.1
2018-Feb-21 01:30N 17°38' W 063°06'610.4
2018-Feb-21 00:58N 17°44' W 063°06'510.5
2018-Feb-21 00:30N 17°49' W 063°06'610.6
2018-Feb-20 23:56N 17°55' W 063°06'510.8
2018-Feb-20 23:28N 17°60' W 063°06'3 5.7
2018-Feb-20 22:55N 18°01' W 063°03'0 0.0
2018-Feb-20 22:22N 18°01' W 063°03'0 0.0
2018-Feb-20 21:52N 18°01' W 063°03'0 0.0
2018-Feb-20 21:25N 18°01' W 063°03'0 0.0
2018-Feb-20 20:55N 18°01' W 063°03'0 0.0
2018-Feb-20 20:25N 18°01' W 063°03'0 0.0
2018-Feb-20 19:55N 18°01' W 063°03'0 0.0
2018-Feb-20 19:22N 18°01' W 063°03'0 0.0
2018-Feb-20 18:52N 18°01' W 063°03'0 0.0
2018-Feb-20 18:28N 18°01' W 063°03'0 0.0
2018-Feb-20 17:55N 18°01' W 063°03'0 0.0
2018-Feb-20 17:28N 18°01' W 063°03'0 0.0
2018-Feb-20 16:55N 18°01' W 063°03'0 0.0
2018-Feb-20 16:13N 18°01' W 063°03'0 0.0
2018-Feb-20 15:55N 18°01' W 063°03'0 0.0
2018-Feb-20 15:16N 18°01' W 063°03'0 0.0
2018-Feb-20 14:58N 18°01' W 063°03'0 0.0
2018-Feb-20 14:28N 18°01' W 063°03'0 0.0
2018-Feb-20 13:58N 18°01' W 063°03'0 0.9
2018-Feb-20 13:26N 18°00' W 063°03'4 9.2
2018-Feb-20 12:59N 18°00' W 063°07'1111.6
2018-Feb-20 12:00N 18°06' W 063°18'741.8 050 / 301019.0 23.020.027.9
2018-Feb-20 11:50N 18°07' W 063°25'617.2
2018-Feb-20 11:30N 18°12' W 063°29'917.0
2018-Feb-20 10:59N 18°19' W 063°35'8714.6
2018-Feb-20 05:00N 19°18' W 064°42'2914.5 090 / 34 24.020.022.0
2018-Feb-20 03:00N 19°36' W 065°06'16117.9 080 / 311022.0 24.620.027.0
2018-Feb-19 18:00N 20°54' W 067°36'9716.1 090 / 33 25.021.0
2018-Feb-19 12:00N 21°42' W 069°06'9616.0 080 / 291022.0 24.021.026.0
2018-Feb-19 06:00N 22°30' W 070°36'4113.7 070 / 36 24.020.0
2018-Feb-19 03:00N 22°54' W 071°12'15016.7 090 / 261023.0 24.020.026.0
2018-Feb-18 18:00N 24°06' W 073°36'21317.8 120 / 22 24.020.0
2018-Feb-18 06:00N 25°42' W 077°06'11919.7 090 / 10 25.019.0
2018-Feb-17 23:57N 26°15' W 079°13'919.2
2018-Feb-17 23:30N 26°13' W 079°22'1019.3
2018-Feb-17 23:00N 26°11' W 079°33'1019.5
2018-Feb-17 22:31N 26°10' W 079°44'1019.2
2018-Feb-17 22:01N 26°08' W 079°54'917.1
2018-Feb-17 21:30N 26°06' W 080°03'3 6.9
2018-Feb-17 21:00N 26°06' W 080°07'0 0.3
2018-Feb-17 20:28N 26°06' W 080°07'0 0.0
2018-Feb-17 19:58N 26°06' W 080°07'0 0.0
2018-Feb-17 19:28N 26°06' W 080°07'0 0.0
2018-Feb-17 18:58N 26°06' W 080°07'0 0.0
2018-Feb-17 18:28N 26°06' W 080°07'0 0.0
2018-Feb-17 17:58N 26°06' W 080°07'0 0.0
2018-Feb-17 17:28N 26°06' W 080°07'0 0.0
2018-Feb-17 16:58N 26°06' W 080°07'0 0.0
2018-Feb-17 16:28N 26°06' W 080°07'0 0.0
2018-Feb-17 15:58N 26°06' W 080°07'0 0.0
2018-Feb-17 15:28N 26°06' W 080°07'0 0.0
2018-Feb-17 14:58N 26°06' W 080°07'0 0.0
2018-Feb-17 14:28N 26°06' W 080°07'0 0.0
2018-Feb-17 13:58N 26°06' W 080°07'0 0.0
2018-Feb-17 13:28N 26°06' W 080°07'0 0.0
2018-Feb-17 12:55N 26°06' W 080°07'0 0.0
2018-Feb-17 12:28N 26°06' W 080°07'0 0.0
2018-Feb-17 11:58N 26°06' W 080°07'0 0.0
2018-Feb-17 11:25N 26°06' W 080°07'0 0.7
2018-Feb-17 11:01N 26°06' W 080°07'5 9.4
2018-Feb-17 10:31N 26°06' W 080°02'4 8.6
2018-Feb-17 10:00N 26°03' W 079°58'5 9.9
2018-Feb-17 09:31N 25°60' W 079°54'612.7
2018-Feb-17 09:00N 25°56' W 079°48'612.7
2018-Feb-17 08:30N 25°52' W 079°43'510.7
2018-Feb-17 08:00N 25°47' W 079°41'612.0
2018-Feb-17 07:30N 25°41' W 079°40'612.9
2018-Feb-17 07:00N 25°35' W 079°39'4 8.2
2018-Feb-17 06:30N 25°34' W 079°35'5 9.4
2018-Feb-17 06:00N 25°36' W 079°30'5709.4 080 / 18 25.021.022.0
2018-Feb-17 05:59N 25°38' W 079°35'4 7.4
2018-Feb-17 05:30N 25°41' W 079°35'4 7.2
2018-Feb-17 05:00N 25°45' W 079°35'4 7.2
2018-Feb-17 04:30N 25°49' W 079°35'4 7.4
2018-Feb-17 04:00N 25°52' W 079°35'4 7.4
2018-Feb-17 03:30N 25°56' W 079°35'4 7.4
2018-Feb-17 03:00N 25°60' W 079°35'7465.3
2018-Feb-17 03:00N 25°54' W 079°30'918.4 170 / 131022.0 24.018.026.7
2018-Feb-17 02:30N 26°03' W 079°33'4 7.1
2018-Feb-17 02:00N 26°06' W 079°31'4 7.3
2018-Feb-17 01:30N 26°09' W 079°29'4 7.3
2018-Feb-17 01:00N 26°13' W 079°28'4 7.3
2018-Feb-17 00:30N 26°16' W 079°27'4 7.5
2018-Feb-17 00:00N 26°20' W 079°25'4 7.5
2018-Feb-16 23:30N 26°23' W 079°25'4 7.5
2018-Feb-16 22:59N 26°27' W 079°25'4 7.4
2018-Feb-16 22:30N 26°31' W 079°25'4 7.3
2018-Feb-16 22:00N 26°34' W 079°25'4 7.9
2018-Feb-16 21:30N 26°38' W 079°24'611.3
2018-Feb-16 21:00N 26°37' W 079°18'2711.6
2018-Feb-16 18:39N 26°26' W 078°49'211.5
2018-Feb-16 18:30N 26°28' W 078°48'90 7.2
2018-Feb-16 06:00N 25°48' W 077°18'5016.7 070 / 18 25.021.022.0
2018-Feb-16 03:00N 25°36' W 076°24'114 5.4 040 / 121024.0 23.019.027.0
2018-Feb-15 06:00N 24°30' W 074°42'3712.5 040 / 18 25.022.0
2018-Feb-15 03:00N 24°12' W 074°06'14616.2 060 / 211026.0 24.021.026.8
2018-Feb-14 18:00N 22°30' W 072°12'125 9.6 060 / 22 25.019.021.0
2018-Feb-14 05:00N 20°36' W 071°18'16 8.2 060 / 18 25.019.0
2018-Feb-14 03:00N 20°24' W 071°06'118 5.6 100 / 311024.0 25.022.027.0
2018-Feb-13 06:00N 20°30' W 073°12'3611.9 080 / 45 26.020.025.0
2018-Feb-13 03:00N 20°42' W 073°48'16818.6 080 / 331022.0 25.022.028.0
2018-Feb-12 18:00N 21°42' W 076°36'9115.2 090 / 30 25.021.0
2018-Feb-12 12:00N 22°30' W 078°00'10217.1 090 / 291021.0 25.022.026.8
2018-Feb-12 06:00N 23°48' W 079°12'3812.5 080 / 25 25.022.025.0
2018-Feb-12 03:00N 24°24' W 079°24'6124.8 090 / 261021.0 25.022.026.0
2018-Feb-12 00:31N 25°24' W 079°39'417.0
2018-Feb-12 00:18N 25°28' W 079°39'516.8
2018-Feb-12 00:00N 25°32' W 079°41'816.6
2018-Feb-11 23:30N 25°40' W 079°44'816.7
2018-Feb-11 23:01N 25°47' W 079°49'816.2
2018-Feb-11 22:30N 25°54' W 079°54'815.9
2018-Feb-11 22:01N 26°00' W 079°59'713.3
2018-Feb-11 21:30N 26°06' W 080°04'3 6.4
2018-Feb-11 20:59N 26°06' W 080°07'0 0.0
2018-Feb-11 20:29N 26°06' W 080°07'0 0.0
2018-Feb-11 19:59N 26°06' W 080°07'0 0.0
2018-Feb-11 19:30N 26°06' W 080°07'0 0.0
2018-Feb-11 18:56N 26°06' W 080°07'0 0.0
2018-Feb-11 18:29N 26°06' W 080°07'0 0.0
2018-Feb-11 18:00N 26°06' W 080°07'0 0.0
2018-Feb-11 17:30N 26°06' W 080°07'0 0.0
2018-Feb-11 16:59N 26°06' W 080°07'  

Dump ship's entire track history